createdAt,value
2019-04-06T00:00:03.504Z,99218.75
2019-04-06T00:02:53.925Z,99218.28
2019-04-06T00:05:56.678Z,99214.10
2019-04-06T00:08:47.072Z,99214.34
2019-04-06T00:11:29.660Z,99214.58
2019-04-06T00:14:20.030Z,99209.79
2019-04-06T00:17:02.645Z,99214.41
2019-04-06T00:19:53.048Z,99209.39
2019-04-06T00:22:36.279Z,99212.88
2019-04-06T00:25:26.639Z,99210.10
2019-04-06T00:28:09.771Z,99199.39
2019-04-06T00:31:19.023Z,99203.98
2019-04-06T00:34:02.368Z,99192.87
2019-04-06T00:36:52.753Z,99200.61
2019-04-06T00:39:35.531Z,99198.52
2019-04-06T00:42:25.952Z,99197.90
2019-04-06T00:45:09.135Z,99197.53
2019-04-06T00:47:59.565Z,99193.05
2019-04-06T00:50:42.204Z,99196.80
2019-04-06T00:53:32.680Z,99195.49
2019-04-06T00:56:16.047Z,99197.05
2019-04-06T00:59:06.552Z,99191.43
2019-04-06T01:02:10.482Z,99187.50
2019-04-06T01:05:00.919Z,99185.18
2019-04-06T01:07:43.681Z,99186.63
2019-04-06T01:10:34.097Z,99180.30
2019-04-06T01:13:17.459Z,99179.54
2019-04-06T01:16:07.905Z,99181.61
2019-04-06T01:18:51.359Z,99184.02
2019-04-06T01:21:41.789Z,99178.30
2019-04-06T01:24:24.967Z,99182.07
2019-04-06T01:27:15.406Z,99179.15
2019-04-06T01:29:58.309Z,99174.14
2019-04-06T01:32:48.736Z,99173.74
2019-04-06T01:35:31.737Z,99177.13
2019-04-06T01:38:22.195Z,99179.06
2019-04-06T01:41:05.010Z,99180.98
2019-04-06T01:43:55.388Z,99174.69
2019-04-06T01:46:38.377Z,99168.95
2019-04-06T01:49:28.758Z,99171.19
2019-04-06T01:52:11.848Z,99174.67
2019-04-06T01:55:02.225Z,99175.58
2019-04-06T01:57:45.592Z,99174.91
2019-04-06T02:00:36.124Z,99176.59
2019-04-06T02:03:18.742Z,99172.83
2019-04-06T02:09:18.452Z,99172.06
2019-04-06T02:12:08.854Z,99176.00
2019-04-06T02:14:51.456Z,99172.89
2019-04-06T02:17:41.876Z,99164.78
2019-04-06T02:20:24.407Z,99167.95
2019-04-06T02:23:14.845Z,99168.95
2019-04-06T02:26:24.642Z,99170.49
2019-04-06T02:29:09.690Z,99174.12
2019-04-06T02:35:45.561Z,99171.19
2019-04-06T02:38:47.726Z,99166.47
2019-04-06T02:41:50.002Z,99168.72
2019-04-06T02:44:40.546Z,99175.22
2019-04-06T02:47:23.825Z,99164.78
2019-04-06T02:50:14.337Z,99166.16
2019-04-06T02:52:57.893Z,99159.78
2019-04-06T02:55:48.340Z,99155.91
2019-04-06T02:58:31.550Z,99157.22
2019-04-06T03:01:22.027Z,99166.86
2019-04-06T03:04:04.702Z,99163.45
2019-04-06T03:10:23.767Z,99155.45
2019-04-06T03:13:14.148Z,99159.72
2019-04-06T03:16:04.599Z,99154.35
2019-04-06T03:18:47.472Z,99151.58
2019-04-06T03:21:37.886Z,99151.82
2019-04-06T03:24:21.392Z,99151.58
2019-04-06T03:27:12.110Z,99147.55
2019-04-06T03:30:16.958Z,99149.93
2019-04-06T03:33:07.355Z,99149.17
2019-04-06T03:35:51.819Z,99142.45
2019-04-06T03:38:42.617Z,99147.25
2019-04-06T03:41:26.197Z,99156.19
2019-04-06T03:44:09.338Z,99160.21
2019-04-06T03:46:59.901Z,99160.12
2019-04-06T03:49:42.883Z,99155.61
2019-04-06T03:52:33.246Z,99151.52
2019-04-06T03:55:16.259Z,99149.20
2019-04-06T03:58:06.750Z,99144.26
2019-04-06T04:00:49.630Z,99152.55
2019-04-06T04:03:40.372Z,99146.45
2019-04-06T04:06:45.063Z,99160.21
2019-04-06T04:09:35.404Z,99163.45
2019-04-06T04:12:18.323Z,99163.75
2019-04-06T04:15:08.880Z,99158.14
2019-04-06T04:17:51.968Z,99157.73
2019-04-06T04:20:42.358Z,99155.75
2019-04-06T04:23:25.439Z,99164.48
2019-04-06T04:26:15.837Z,99167.34
2019-04-06T04:28:58.606Z,99168.11
2019-04-06T04:31:49.153Z,99171.28
2019-04-06T04:34:52.165Z,99179.73
2019-04-06T04:37:42.786Z,99177.42
2019-04-06T04:40:26.273Z,99176.74
2019-04-06T04:43:16.667Z,99177.36
2019-04-06T04:45:59.391Z,99177.97
2019-04-06T04:48:49.707Z,99178.73
2019-04-06T04:51:33.225Z,99175.28
2019-04-06T04:54:23.676Z,99183.98
2019-04-06T04:57:06.551Z,99179.52
2019-04-06T04:59:56.915Z,99188.55
2019-04-06T05:02:40.285Z,99189.77
2019-04-06T05:05:30.654Z,99185.14
2019-04-06T05:08:13.264Z,99189.62
2019-04-06T05:11:03.873Z,99188.52
2019-04-06T05:13:47.052Z,99182.91
2019-04-06T05:16:59.258Z,99190.05
2019-04-06T05:19:42.300Z,99189.84
2019-04-06T05:22:32.686Z,99189.51
2019-04-06T05:25:16.139Z,99188.47
2019-04-06T05:28:06.500Z,99189.99
2019-04-06T05:30:49.790Z,99196.86
2019-04-06T05:33:40.304Z,99197.56
2019-04-06T05:36:23.872Z,99190.51
2019-04-06T05:39:14.213Z,99201.87
2019-04-06T05:41:57.350Z,99208.89
2019-04-06T05:44:47.722Z,99202.17
2019-04-06T05:47:30.486Z,99211.14
2019-04-06T05:50:20.874Z,99210.28
2019-04-06T05:53:03.738Z,99214.86
2019-04-06T05:55:54.099Z,99213.62
2019-04-06T05:58:39.964Z,99210.99
2019-04-06T06:01:29.080Z,99212.60
2019-04-06T06:04:12.384Z,99217.34
2019-04-06T06:07:18.090Z,99211.75
2019-04-06T06:10:07.145Z,99217.00
2019-04-06T06:12:57.543Z,99221.83
2019-04-06T06:16:00.222Z,99224.11
2019-04-06T06:18:50.551Z,99223.93
2019-04-06T06:21:33.274Z,99219.62
2019-04-06T06:24:23.647Z,99223.66
2019-04-06T06:27:14.020Z,99224.66
2019-04-06T06:29:57.431Z,99227.96
2019-04-06T06:32:47.796Z,99216.30
2019-04-06T06:35:30.718Z,99220.34
2019-04-06T06:38:21.448Z,99218.40
2019-04-06T06:41:04.523Z,99219.45
2019-04-06T06:43:54.851Z,99226.77
2019-04-06T06:46:38.386Z,99229.86
2019-04-06T06:49:28.790Z,99226.38
2019-04-06T06:52:11.897Z,99230.45
2019-04-06T06:55:02.242Z,99225.66
2019-04-06T06:57:52.600Z,99235.41
2019-04-06T07:00:35.212Z,99230.62
2019-04-06T07:03:25.538Z,99232.83
2019-04-06T07:06:08.290Z,99227.13
2019-04-06T07:08:58.654Z,99224.39
2019-04-06T07:11:42.128Z,99222.78
2019-04-06T07:14:32.663Z,99220.52
2019-04-06T07:17:15.918Z,99223.48
2019-04-06T07:23:35.300Z,99232.78
2019-04-06T07:26:25.697Z,99237.36
2019-04-06T07:29:08.736Z,99234.27
2019-04-06T07:31:59.310Z,99230.23
2019-04-06T07:34:42.641Z,99233.35
2019-04-06T07:37:32.988Z,99235.82
2019-04-06T07:40:15.745Z,99235.06
2019-04-06T07:43:06.235Z,99241.89
2019-04-06T07:45:49.185Z,99241.59
2019-04-06T07:48:42.577Z,99242.61
2019-04-06T07:51:45.541Z,99240.31
2019-04-06T07:54:36.008Z,99235.64
2019-04-06T07:57:19.316Z,99235.64
2019-04-06T08:00:10.159Z,99234.91
2019-04-06T08:02:53.131Z,99232.95
2019-04-06T08:05:43.480Z,99237.38
2019-04-06T08:08:28.613Z,99236.80
2019-04-06T08:11:18.775Z,99232.33
2019-04-06T08:14:01.621Z,99243.25
2019-04-06T08:16:51.982Z,99236.13
2019-04-06T08:19:35.461Z,99238.28
2019-04-06T08:22:25.979Z,99232.08
2019-04-06T08:25:08.748Z,99232.84
2019-04-06T08:27:59.100Z,99237.83
2019-04-06T08:30:46.043Z,99243.84
2019-04-06T08:33:34.625Z,99237.80
2019-04-06T08:36:17.588Z,99235.17
2019-04-06T08:39:08.738Z,99230.83
2019-04-06T08:41:51.419Z,99224.23
2019-04-06T08:44:41.778Z,99233.41
2019-04-06T08:47:25.144Z,99234.64
2019-04-06T08:50:15.969Z,99228.84
2019-04-06T08:53:20.083Z,99231.52
2019-04-06T08:56:10.549Z,99237.84
2019-04-06T08:58:53.869Z,99236.45
2019-04-06T09:01:44.230Z,99232.48
2019-04-06T09:04:27.814Z,99236.61
2019-04-06T09:07:18.181Z,99245.81
2019-04-06T09:10:01.035Z,99244.19
2019-04-06T09:12:51.380Z,99237.66
2019-04-06T09:15:34.444Z,99230.92
2019-04-06T09:18:24.848Z,99231.55
2019-04-06T09:21:07.827Z,99233.63
2019-04-06T09:23:58.885Z,99232.55
2019-04-06T09:27:03.196Z,99232.79
2019-04-06T09:29:53.517Z,99229.74
2019-04-06T09:32:36.932Z,99230.45
2019-04-06T09:35:27.320Z,99231.37
2019-04-06T09:38:19.225Z,99235.19
2019-04-06T09:41:09.627Z,99232.75
2019-04-06T09:43:52.530Z,99236.30
2019-04-06T09:47:01.938Z,99234.89
2019-04-06T09:50:03.404Z,99228.96
2019-04-06T09:53:12.610Z,99226.81
2019-04-06T09:56:01.747Z,99230.05
2019-04-06T09:59:10.995Z,99224.89
2019-04-06T10:02:12.481Z,99223.15
2019-04-06T10:05:09.827Z,99215.59
2019-04-06T10:08:01.709Z,99214.31
2019-04-06T10:11:10.925Z,99214.66
2019-04-06T10:14:04.520Z,99208.13
2019-04-06T10:17:13.740Z,99209.16
2019-04-06T10:20:15.427Z,99208.89
2019-04-06T10:23:24.633Z,99208.42
2019-04-06T10:26:33.926Z,99205.05
2019-04-06T10:29:28.766Z,99206.25
2019-04-06T10:32:34.511Z,99205.91
2019-04-06T10:35:48.482Z,99203.27
2019-04-06T10:38:57.685Z,99209.38
2019-04-06T10:41:59.115Z,99200.52
2019-04-06T10:45:08.356Z,99209.80
2019-04-06T10:48:10.523Z,99206.88
2019-04-06T10:51:19.765Z,99205.46
2019-04-06T10:54:21.063Z,99205.64
2019-04-06T10:57:23.422Z,99199.80
2019-04-06T11:00:32.611Z,99195.52
2019-04-06T11:03:37.185Z,99192.06
2019-04-06T11:06:46.640Z,99185.34
2019-04-06T11:09:48.382Z,99179.04
2019-04-06T11:12:57.613Z,99186.96
2019-04-06T11:15:54.972Z,99175.52
2019-04-06T11:19:04.175Z,99173.95
2019-04-06T11:22:06.368Z,99169.48
2019-04-06T11:25:15.546Z,99169.20
2019-04-06T11:28:12.960Z,99165.98
2019-04-06T11:31:22.228Z,99165.81
2019-04-06T11:34:13.528Z,99154.44
2019-04-06T11:37:44.424Z,99154.09
2019-04-06T11:40:41.100Z,99165.69
2019-04-06T11:43:42.776Z,99160.95
2019-04-06T11:46:44.534Z,99155.92
2019-04-06T11:49:53.780Z,99152.36
2019-04-06T11:52:55.401Z,99156.38
2019-04-06T11:56:04.533Z,99157.89
2019-04-06T11:59:13.148Z,99154.84
2019-04-06T12:02:28.194Z,99150.78
2019-04-06T12:05:29.951Z,99154.45
2019-04-06T12:08:39.292Z,99148.49
2019-04-06T12:11:41.286Z,99148.17
2019-04-06T12:14:47.292Z,99147.10
2019-04-06T12:18:06.602Z,99146.38
2019-04-06T12:21:15.826Z,99147.78
2019-04-06T12:24:18.088Z,99146.30
2019-04-06T12:27:27.521Z,99145.20
2019-04-06T12:30:37.220Z,99139.79
2019-04-06T12:33:28.792Z,99134.87
2019-04-06T12:36:30.776Z,99137.27
2019-04-06T12:39:28.119Z,99138.46
2019-04-06T12:42:30.217Z,99136.27
2019-04-06T12:45:39.454Z,99136.24
2019-04-06T12:48:41.661Z,99136.42
2019-04-06T12:51:50.871Z,99131.36
2019-04-06T12:54:53.451Z,99135.64
2019-04-06T12:58:02.631Z,99137.13
2019-04-06T13:01:04.462Z,99127.16
2019-04-06T13:04:13.703Z,99123.95
2019-04-06T13:07:22.947Z,99120.47
2019-04-06T13:10:32.196Z,99120.98
2019-04-06T13:13:41.384Z,99124.72
2019-04-06T13:16:50.606Z,99121.00
2019-04-06T13:19:52.463Z,99111.34
2019-04-06T13:23:01.684Z,99122.91
2019-04-06T13:26:09.441Z,99119.61
2019-04-06T13:29:18.687Z,99118.97
2019-04-06T13:32:27.919Z,99111.25
2019-04-06T13:35:15.309Z,99112.58
2019-04-06T13:38:24.511Z,99109.22
2019-04-06T13:41:26.915Z,99109.83
2019-04-06T13:44:36.108Z,99101.66
2019-04-06T13:47:36.761Z,99108.91
2019-04-06T13:50:46.016Z,99102.94
2019-04-06T13:53:47.544Z,99104.95
2019-04-06T13:56:56.791Z,99101.48
2019-04-06T13:59:47.141Z,99104.84
2019-04-06T14:02:54.625Z,99104.30
2019-04-06T14:06:12.201Z,99110.22
2019-04-06T14:09:21.423Z,99114.92
2019-04-06T14:12:30.676Z,99111.30
2019-04-06T14:15:32.932Z,99111.46
2019-04-06T14:18:42.193Z,99113.11
2019-04-06T14:21:43.626Z,99103.64
2019-04-06T14:24:40.597Z,99110.28
2019-04-06T14:27:49.941Z,99104.30
2019-04-06T14:30:51.341Z,99099.45
2019-04-06T14:33:52.235Z,99107.00
2019-04-06T14:36:58.192Z,99106.66
2019-04-06T14:40:07.403Z,99102.35
2019-04-06T14:43:12.662Z,99100.48
2019-04-06T14:46:22.111Z,99101.83
2019-04-06T14:49:30.887Z,99100.83
2019-04-06T14:52:53.273Z,99104.55
2019-04-06T14:55:55.624Z,99103.30
2019-04-06T14:59:00.291Z,99103.09
2019-04-06T15:02:02.378Z,99103.37
2019-04-06T15:05:11.595Z,99092.30
2019-04-06T15:08:18.978Z,99098.48
2019-04-06T15:11:28.207Z,99101.08
2019-04-06T15:14:58.340Z,99100.80
2019-04-06T15:18:07.620Z,99098.16
2019-04-06T15:21:12.398Z,99105.10
2019-04-06T15:24:13.884Z,99102.56
2019-04-06T15:27:23.076Z,99102.64
2019-04-06T15:30:25.803Z,99101.72
2019-04-06T15:33:35.299Z,99095.56
2019-04-06T15:36:31.404Z,99097.59
2019-04-06T15:40:02.223Z,99093.08
2019-04-06T15:43:01.906Z,99092.46
2019-04-06T15:46:11.115Z,99092.20
2019-04-06T15:49:08.245Z,99088.90
2019-04-06T15:52:17.458Z,99089.85
2019-04-06T15:55:19.069Z,99096.25
2019-04-06T15:58:15.804Z,99096.69
2019-04-06T16:01:24.979Z,99083.69
2019-04-06T16:04:27.005Z,99090.58
2019-04-06T16:07:35.187Z,99086.58
2019-04-06T16:10:37.022Z,99088.17
2019-04-06T16:13:48.244Z,99090.30
2019-04-06T16:17:09.413Z,99089.77
2019-04-06T16:20:18.613Z,99090.75
2019-04-06T16:23:12.036Z,99094.84
2019-04-06T16:26:25.655Z,99089.08
2019-04-06T16:29:34.835Z,99091.16
2019-04-06T16:32:36.666Z,99090.27
2019-04-06T16:35:45.869Z,99086.76
2019-04-06T16:38:48.098Z,99088.94
2019-04-06T16:41:49.207Z,99086.96
2019-04-06T16:44:51.599Z,99089.06
2019-04-06T16:47:48.516Z,99081.70
2019-04-06T16:50:50.648Z,99084.41
2019-04-06T16:54:00.379Z,99079.31
2019-04-06T16:57:02.027Z,99079.18
2019-04-06T17:00:17.068Z,99077.75
2019-04-06T17:03:19.940Z,99075.52
2019-04-06T17:06:18.442Z,99078.50
2019-04-06T17:09:11.130Z,99082.88
2019-04-06T17:12:20.361Z,99078.73
2019-04-06T17:15:18.631Z,99077.62
2019-04-06T17:18:27.792Z,99083.33
2019-04-06T17:21:29.662Z,99085.09
2019-04-06T17:24:29.320Z,99082.55
2019-04-06T17:27:38.568Z,99084.55
2019-04-06T17:30:40.894Z,99078.94
2019-04-06T17:33:50.667Z,99067.95
2019-04-06T17:36:52.080Z,99077.81
2019-04-06T17:40:01.294Z,99079.05
2019-04-06T17:42:53.972Z,99074.55
2019-04-06T17:46:03.356Z,99076.84
2019-04-06T17:49:05.990Z,99068.02
2019-04-06T17:52:03.322Z,99075.10
2019-04-06T17:55:03.831Z,99076.75
2019-04-06T17:58:13.081Z,99071.76
2019-04-06T18:01:15.371Z,99074.65
2019-04-06T18:04:24.977Z,99070.13
2019-04-06T18:07:26.641Z,99073.44
2019-04-06T18:10:35.826Z,99083.66
2019-04-06T18:13:32.455Z,99077.71
2019-04-06T18:19:34.970Z,99077.47
2019-04-06T18:22:25.370Z,99076.06
2019-04-06T18:25:08.057Z,99081.38
2019-04-06T18:27:58.415Z,99084.31
2019-04-06T18:30:41.893Z,99083.27
2019-04-06T18:33:32.279Z,99089.09
2019-04-06T18:36:15.859Z,99093.92
2019-04-06T18:39:26.864Z,99091.30
2019-04-06T18:42:10.604Z,99090.11
2019-04-06T18:45:01.110Z,99094.09
2019-04-06T18:47:43.816Z,99092.80
2019-04-06T18:50:34.842Z,99097.00
2019-04-06T18:53:19.382Z,99093.77
2019-04-06T18:56:24.423Z,99092.81
2019-04-06T18:59:08.188Z,99091.98
2019-04-06T19:01:58.971Z,99089.81
2019-04-06T19:04:42.902Z,99091.16
2019-04-06T19:07:33.845Z,99090.56
2019-04-06T19:10:39.341Z,99094.05
2019-04-06T19:13:29.950Z,99098.36
2019-04-06T19:16:12.976Z,99093.80
2019-04-06T19:19:03.661Z,99097.27
2019-04-06T19:21:47.131Z,99098.96
2019-04-06T19:24:37.785Z,99089.09
2019-04-06T19:27:21.545Z,99092.45
2019-04-06T19:30:12.793Z,99092.11
2019-04-06T19:32:55.693Z,99097.77
2019-04-06T19:35:46.351Z,99088.00
2019-04-06T19:38:29.981Z,99092.95
2019-04-06T19:41:21.386Z,99103.05
2019-04-06T19:44:04.717Z,99104.59
2019-04-06T19:46:55.889Z,99098.45
2019-04-06T19:50:00.529Z,99094.96
2019-04-06T19:52:51.137Z,99099.28
2019-04-06T19:55:34.592Z,99103.61
2019-04-06T19:58:25.123Z,99101.34
2019-04-06T20:01:08.358Z,99100.71
2019-04-06T20:04:17.858Z,99092.77
2019-04-06T20:07:01.452Z,99095.05
2019-04-06T20:09:52.177Z,99091.93
2019-04-06T20:12:36.009Z,99093.00
2019-04-06T20:15:26.717Z,99089.25
2019-04-06T20:18:10.197Z,99087.58
2019-04-06T20:21:00.882Z,99090.33
2019-04-06T20:23:43.858Z,99094.42
2019-04-06T20:26:27.655Z,99090.23
2019-04-06T20:29:18.275Z,99090.10
2019-04-06T20:32:01.911Z,99090.83
2019-04-06T20:34:52.445Z,99089.76
2019-04-06T20:37:35.891Z,99095.99
2019-04-06T20:40:26.391Z,99089.25
2019-04-06T20:43:09.732Z,99087.33
2019-04-06T20:46:00.819Z,99085.88
2019-04-06T20:49:05.477Z,99089.85
2019-04-06T20:51:55.903Z,99087.65
2019-04-06T20:54:39.561Z,99088.63
2019-04-06T20:57:30.724Z,99084.12
2019-04-06T21:00:34.671Z,99085.56
2019-04-06T21:03:25.475Z,99090.12
2019-04-06T21:06:30.112Z,99089.96
2019-04-06T21:09:20.492Z,99091.06
2019-04-06T21:12:03.565Z,99089.83
2019-04-06T21:14:54.415Z,99091.63
2019-04-06T21:17:58.750Z,99094.61
2019-04-06T21:20:49.545Z,99095.63
2019-04-06T21:23:54.023Z,99097.89
2019-04-06T21:26:44.454Z,99093.80
2019-04-06T21:29:27.266Z,99096.82
2019-04-06T21:32:18.056Z,99098.36
2019-04-06T21:35:22.532Z,99095.67
2019-04-06T21:38:13.272Z,99092.59
2019-04-06T21:41:17.499Z,99090.20
2019-04-06T21:44:08.727Z,99095.82
2019-04-06T21:46:59.086Z,99099.36
2019-04-06T21:49:42.502Z,99093.67
2019-04-06T21:52:32.885Z,99097.23
2019-04-06T21:55:16.153Z,99094.11
2019-04-06T21:58:06.559Z,99096.63
2019-04-06T22:00:52.614Z,99092.41
2019-04-06T22:03:43.006Z,99093.47
2019-04-06T22:06:26.480Z,99092.61
2019-04-06T22:09:17.493Z,99093.37
2019-04-06T22:12:21.724Z,99093.14
2019-04-06T22:18:22.117Z,99100.14
2019-04-06T22:21:12.590Z,99086.67
2019-04-06T22:23:55.677Z,99088.36
2019-04-06T22:26:46.029Z,99094.98
2019-04-06T22:29:28.920Z,99091.48
2019-04-06T22:32:19.570Z,99090.03
2019-04-06T22:35:23.535Z,99092.20
2019-04-06T22:38:13.906Z,99084.88
2019-04-06T22:40:56.761Z,99084.19
2019-04-06T22:43:47.104Z,99087.83
2019-04-06T22:46:29.931Z,99087.78
2019-04-06T22:49:20.267Z,99085.14
2019-04-06T22:52:03.334Z,99084.84
2019-04-06T22:54:54.236Z,99093.55
2019-04-06T22:57:58.178Z,99085.56
2019-04-06T23:07:27.110Z,99076.48
2019-04-06T23:10:10.162Z,99083.48
2019-04-06T23:13:00.810Z,99077.25
2019-04-06T23:15:59.349Z,99075.53
2019-04-06T23:18:59.530Z,99078.27
2019-04-06T23:21:42.916Z,99073.36
2019-04-06T23:24:33.469Z,99075.75
2019-04-06T23:27:16.884Z,99078.31
2019-04-06T23:33:36.057Z,99074.47
2019-04-06T23:36:26.394Z,99072.55
2019-04-06T23:39:10.207Z,99068.73
2019-04-06T23:42:01.170Z,99075.66
2019-04-06T23:44:44.297Z,99071.06
2019-04-06T23:47:35.116Z,99067.41
2019-04-06T23:50:39.525Z,99071.15
2019-04-06T23:53:30.413Z,99070.77
2019-04-06T23:56:35.085Z,99058.88
2019-04-06T23:59:25.825Z,99064.29
